Kalisz, Poland
Current Conditions -  °F | °C
As of 10:00 AM on Saturday 25 Oct 2014 (Local Time) from EPLL Reporting Station
Overcast Overcast  
Wind Chill: 27°   Ceiling: 1400
Heat Index: 34°   Visibility: 6mi
Dew Point: 28°   Wind: 8mph
Humidity: 81%   Direction: 140°SE
Pressure: 30.27"   Gusts: NA
Location:  51.77°N, 18.1°E
Report Text: EPLL 250800Z 14007KT 110V170 9999 BKN014 OVC028 01/M02 Q1025
Loading
Personal Weather Stations






























Interactive Weather Map
Tropical Storm Tracking
New forecast layout! Learn more

10-Day Weather Forecast

Advertisements
Track Severe Weather on mobile